createdAt,value
2022-12-15T00:01:23.676Z,49.70
2022-12-15T00:06:45.392Z,47.37
2022-12-15T00:12:07.215Z,48.93
2022-12-15T00:17:29.148Z,47.27
2022-12-15T00:22:51.746Z,55.23
2022-12-15T00:28:16.567Z,50.87
2022-12-15T00:33:38.927Z,47.23
2022-12-15T00:38:45.209Z,41.93
2022-12-15T00:43:49.000Z,41.97
2022-12-15T00:48:52.685Z,57.63
2022-12-15T00:54:18.117Z,50.03
2022-12-15T00:59:40.576Z,46.13
2022-12-15T01:05:02.592Z,55.73
2022-12-15T01:10:25.974Z,47.07
2022-12-15T01:15:48.522Z,41.87
2022-12-15T01:21:03.890Z,51.60
2022-12-15T01:26:10.031Z,52.37
2022-12-15T01:31:14.124Z,61.00
2022-12-15T01:36:18.052Z,52.90
2022-12-15T01:41:21.959Z,36.03
2022-12-15T01:46:26.050Z,56.83
2022-12-15T01:51:43.458Z,49.93
2022-12-15T01:56:51.785Z,54.83
2022-12-15T02:01:55.878Z,51.73
2022-12-15T02:06:59.718Z,46.03
2022-12-15T02:12:32.445Z,42.57
2022-12-15T02:18:03.566Z,42.93
2022-12-15T02:23:35.447Z,49.47
2022-12-15T02:29:16.465Z,51.13
2022-12-15T02:34:51.572Z,53.23
2022-12-15T02:39:55.866Z,45.47
2022-12-15T02:45:06.610Z,40.13
2022-12-15T02:50:38.387Z,42.17
2022-12-15T02:56:03.880Z,50.37
2022-12-15T03:01:35.934Z,57.30
2022-12-15T03:06:41.576Z,47.17
2022-12-15T03:11:48.863Z,45.03
2022-12-15T03:16:55.403Z,44.23
2022-12-15T03:22:02.642Z,39.27
2022-12-15T03:27:11.807Z,36.93
2022-12-15T03:32:17.783Z,37.20
2022-12-15T03:37:23.531Z,41.67
2022-12-15T03:42:47.367Z,37.23
2022-12-15T03:47:55.520Z,41.13
2022-12-15T03:53:05.831Z,33.43
2022-12-15T03:58:18.358Z,35.47
2022-12-15T04:03:25.528Z,37.50
2022-12-15T04:08:46.689Z,34.30
2022-12-15T04:14:09.078Z,49.20
2022-12-15T04:19:34.086Z,47.50
2022-12-15T04:25:01.714Z,38.77
2022-12-15T04:30:28.961Z,44.60
2022-12-15T04:36:04.760Z,51.47
2022-12-15T04:41:45.812Z,55.77
2022-12-15T04:47:17.402Z,41.43
2022-12-15T04:53:00.178Z,43.40
2022-12-15T04:58:48.624Z,51.33
2022-12-15T05:04:23.953Z,56.47
2022-12-15T05:10:25.149Z,56.03
2022-12-15T05:16:00.476Z,46.57
2022-12-15T05:21:28.967Z,48.50
2022-12-15T14:20:19.649Z,95.43
2022-12-15T14:25:28.412Z,86.77
2022-12-15T14:30:36.040Z,74.93
2022-12-15T14:35:49.523Z,64.00
2022-12-15T14:40:57.670Z,58.30
2022-12-15T14:46:15.618Z,64.50
2022-12-15T14:51:23.408Z,64.77
2022-12-15T14:56:33.796Z,68.23
2022-12-15T15:01:57.873Z,68.47
2022-12-15T15:07:18.400Z,77.20
2022-12-15T15:12:24.100Z,65.67
2022-12-15T15:17:36.728Z,77.03
2022-12-15T15:22:47.347Z,70.13
2022-12-15T15:27:50.789Z,71.97
2022-12-15T15:32:55.694Z,68.50
2022-12-15T15:38:05.298Z,60.03
2022-12-15T15:43:12.936Z,51.37
2022-12-15T15:48:27.199Z,59.50
2022-12-15T15:53:33.977Z,48.63
2022-12-15T15:58:37.842Z,48.03
2022-12-15T16:03:42.198Z,50.07
2022-12-15T16:08:49.659Z,45.30
2022-12-15T16:13:53.519Z,44.37
2022-12-15T16:18:56.986Z,46.33
2022-12-15T16:24:02.254Z,40.93
2022-12-15T16:29:16.992Z,50.13
2022-12-15T16:34:22.807Z,48.70
2022-12-15T16:39:35.017Z,48.13
2022-12-15T16:44:39.028Z,48.10
2022-12-15T16:49:43.219Z,45.10
2022-12-15T16:54:49.671Z,47.73
2022-12-15T16:59:53.527Z,44.73
2022-12-15T17:04:58.388Z,49.80
2022-12-15T17:10:02.923Z,47.27
2022-12-15T17:15:17.366Z,52.23
2022-12-15T17:20:31.481Z,49.90
2022-12-15T17:31:05.708Z,61.23
2022-12-15T17:36:17.319Z,46.30
2022-12-15T17:41:42.742Z,47.63
2022-12-15T17:46:46.161Z,54.23
2022-12-15T17:51:50.969Z,65.43
2022-12-15T17:56:54.978Z,56.63
2022-12-15T18:01:59.470Z,65.03
2022-12-15T18:07:04.351Z,61.03
2022-12-15T18:12:18.834Z,63.23
2022-12-15T18:17:24.285Z,58.07
2022-12-15T18:22:29.004Z,55.43
2022-12-15T18:27:33.379Z,61.83
2022-12-15T18:33:52.155Z,54.27
2022-12-15T18:49:46.248Z,55.13
2022-12-15T18:54:52.420Z,52.50
2022-12-15T19:00:17.260Z,53.03
2022-12-15T19:05:30.157Z,63.00
2022-12-15T19:10:35.539Z,59.20
2022-12-15T19:15:40.309Z,54.13
2022-12-15T19:21:02.941Z,62.23
2022-12-15T19:26:11.218Z,53.83
2022-12-15T19:31:16.208Z,69.97
2022-12-15T19:36:30.020Z,61.67
2022-12-15T19:41:39.063Z,70.90
2022-12-15T19:46:50.277Z,62.20
2022-12-15T19:51:55.406Z,70.43
2022-12-15T19:57:01.049Z,64.30
2022-12-15T20:02:07.368Z,62.87
2022-12-15T20:07:33.419Z,65.37
2022-12-15T20:12:37.317Z,76.63
2022-12-15T20:17:41.561Z,69.37
2022-12-15T20:22:52.739Z,58.57
2022-12-15T20:27:58.901Z,65.50
2022-12-15T20:33:07.417Z,59.03
2022-12-15T20:38:36.246Z,62.90
2022-12-15T20:43:41.154Z,71.27
2022-12-15T20:48:46.541Z,61.33
2022-12-15T20:53:52.787Z,60.10
2022-12-15T20:59:00.718Z,66.40
2022-12-15T21:04:21.524Z,59.33
2022-12-15T21:09:25.566Z,62.90
2022-12-15T21:14:29.992Z,60.40
2022-12-15T21:19:33.558Z,56.73
2022-12-15T21:24:37.559Z,55.43
2022-12-15T21:29:46.039Z,60.47
2022-12-15T21:34:52.578Z,62.63
2022-12-15T21:40:00.650Z,91.63
2022-12-15T21:45:26.437Z,98.53
2022-12-15T21:50:30.243Z,105.83
2022-12-15T21:55:34.178Z,107.90
2022-12-15T22:00:42.345Z,102.70
2022-12-15T22:05:49.499Z,100.10
2022-12-15T22:10:53.680Z,103.77
2022-12-15T22:15:58.766Z,93.47
2022-12-15T22:21:03.116Z,88.17
2022-12-15T22:26:07.037Z,91.93
2022-12-15T22:31:11.900Z,94.97
2022-12-15T22:36:22.173Z,98.33
2022-12-15T22:41:26.249Z,103.70
2022-12-15T22:46:32.723Z,86.97
2022-12-15T22:51:38.748Z,73.57
2022-12-15T22:56:42.668Z,81.47
2022-12-15T23:01:46.796Z,80.10
2022-12-15T23:06:50.918Z,79.70
2022-12-15T23:11:56.449Z,83.53
2022-12-15T23:17:00.463Z,76.73
2022-12-15T23:22:04.519Z,79.50
2022-12-15T23:27:12.356Z,86.07
2022-12-15T23:32:16.509Z,77.13
2022-12-15T23:37:20.457Z,78.07
2022-12-15T23:42:24.511Z,91.20
2022-12-15T23:47:28.499Z,80.00
2022-12-15T23:52:33.002Z,76.37
2022-12-15T23:57:39.378Z,87.97
